createdAt,value
2022-10-21T00:03:25.936Z,99.3
2022-10-21T00:04:40.041Z,99.3
2022-10-21T00:07:08.325Z,99.4
2022-10-21T00:08:22.474Z,99.4
2022-10-21T00:10:50.721Z,99.5
2022-10-21T00:14:33.062Z,99.5
2022-10-21T00:15:43.973Z,99.7
2022-10-21T00:16:54.798Z,99.7
2022-10-21T00:18:08.979Z,99.7
2022-10-21T00:19:23.094Z,99.7
2022-10-21T00:21:51.348Z,99.7
2022-10-21T00:23:05.490Z,99.7
2022-10-21T00:25:33.749Z,99.7
2022-10-21T00:26:47.874Z,99.7
2022-10-21T00:29:12.828Z,99.7
2022-10-21T00:31:37.846Z,99.7
2022-10-21T00:32:51.969Z,99.7
2022-10-21T00:34:06.064Z,99.7
2022-10-21T00:35:20.218Z,99.7
2022-10-21T00:36:34.314Z,99.7
2022-10-21T00:37:48.487Z,99.7
2022-10-21T00:39:02.633Z,99.7
2022-10-21T00:40:16.729Z,99.7
2022-10-21T00:41:30.843Z,99.7
2022-10-21T00:42:41.732Z,99.7
2022-10-21T00:43:52.607Z,99.7
2022-10-21T00:46:20.869Z,99.8
2022-10-21T00:47:34.950Z,99.8
2022-10-21T00:51:17.337Z,100
2022-10-21T00:52:31.522Z,100
2022-10-21T00:53:45.622Z,100
2022-10-21T00:54:59.767Z,100
2022-10-21T00:56:10.648Z,100
2022-10-21T00:58:35.586Z,100
2022-10-21T00:59:49.713Z,100
2022-10-21T01:01:03.898Z,100
2022-10-21T01:02:18.087Z,100
2022-10-21T01:03:32.108Z,100
2022-10-21T01:04:46.276Z,100
2022-10-21T01:07:14.516Z,99.8
2022-10-21T01:08:28.627Z,99.8
2022-10-21T01:09:39.104Z,99.8
2022-10-21T01:10:49.915Z,99.8
2022-10-21T01:12:04.056Z,99.8
2022-10-21T01:13:18.230Z,99.8
2022-10-21T01:14:32.342Z,99.8
2022-10-21T01:15:46.467Z,99.9
2022-10-21T01:17:00.611Z,99.9
2022-10-21T01:18:14.728Z,99.9
2022-10-21T01:19:28.868Z,99.9
2022-10-21T01:21:57.132Z,99.8
2022-10-21T01:23:07.970Z,99.8
2022-10-21T01:26:47.076Z,99.9
2022-10-21T01:29:15.343Z,99.9
2022-10-21T01:30:29.000Z,100
2022-10-21T01:31:43.583Z,100
2022-10-21T01:32:57.761Z,100
2022-10-21T01:35:26.021Z,100
2022-10-21T01:36:36.506Z,100
2022-10-21T01:39:01.509Z,100
2022-10-21T01:40:15.656Z,100
2022-10-21T01:41:29.744Z,100
2022-10-21T01:42:43.846Z,100
2022-10-21T01:43:58.034Z,100
2022-10-21T01:45:12.109Z,100
2022-10-21T01:47:40.425Z,100
2022-10-21T01:48:54.566Z,100
2022-10-21T01:50:08.660Z,100
2022-10-21T01:51:19.538Z,100
2022-10-21T01:52:30.417Z,100
2022-10-21T01:53:44.550Z,100
2022-10-21T01:56:12.763Z,100
2022-10-21T01:57:26.923Z,100
2022-10-21T01:58:40.995Z,100
2022-10-21T01:59:55.172Z,100
2022-10-21T02:01:09.276Z,100
2022-10-21T02:03:37.576Z,100
2022-10-21T02:04:48.415Z,100
2022-10-21T02:05:59.278Z,100
2022-10-21T02:07:13.413Z,100
2022-10-21T02:08:27.553Z,100
2022-10-21T02:09:41.676Z,100
2022-10-21T02:10:55.763Z,100
2022-10-21T02:12:09.897Z,99.8
2022-10-21T02:13:24.061Z,99.8
2022-10-21T02:14:38.166Z,99.7
2022-10-21T02:15:52.307Z,99.7
2022-10-21T02:17:06.465Z,99.7
2022-10-21T02:20:42.322Z,99.7
2022-10-21T02:21:56.409Z,99.7
2022-10-21T02:25:38.815Z,99.5
2022-10-21T02:26:52.917Z,99.5
2022-10-21T02:29:21.178Z,99.5
2022-10-21T02:31:46.210Z,99.5
2022-10-21T02:32:57.024Z,99.5
2022-10-21T02:34:11.162Z,99.5
2022-10-21T02:35:25.329Z,99.5
2022-10-21T02:36:39.401Z,99.5
2022-10-21T02:37:53.524Z,99.6
2022-10-21T02:39:07.677Z,99.5
2022-10-21T02:40:21.850Z,99.6
2022-10-21T02:41:35.936Z,99.6
2022-10-21T02:42:50.076Z,99.6
2022-10-21T02:44:04.221Z,99.6
2022-10-21T02:45:15.041Z,99.6
2022-10-21T02:46:25.926Z,99.6
2022-10-21T02:48:54.314Z,99.6
2022-10-21T02:50:08.314Z,99.6
2022-10-21T02:51:22.417Z,99.6
2022-10-21T02:52:36.596Z,99.6
2022-10-21T02:53:50.704Z,99.6
2022-10-21T02:55:04.860Z,99.6
2022-10-21T02:56:18.966Z,99.7
2022-10-21T02:57:33.068Z,99.7
2022-10-21T02:58:43.989Z,99.7
2022-10-21T02:59:54.801Z,99.7
2022-10-21T03:01:09.058Z,99.7
2022-10-21T03:03:45.421Z,99.7
2022-10-21T03:04:59.524Z,99.7
2022-10-21T03:06:13.646Z,99.7
2022-10-21T03:07:27.766Z,99.7
2022-10-21T03:08:41.890Z,99.7
2022-10-21T03:09:56.041Z,99.7
2022-10-21T03:11:06.917Z,99.7
2022-10-21T03:12:17.801Z,99.7
2022-10-21T03:13:31.871Z,99.7
2022-10-21T03:16:00.178Z,99.7
2022-10-21T03:17:14.267Z,99.7
2022-10-21T03:19:42.576Z,99.7
2022-10-21T03:20:56.799Z,99.7
2022-10-21T03:22:19.011Z,99.8
2022-10-21T03:24:40.735Z,99.7
2022-10-21T03:25:54.837Z,99.7
2022-10-21T03:29:37.277Z,99.7
2022-10-21T03:30:51.335Z,99.7
2022-10-21T03:32:05.486Z,99.7
2022-10-21T03:33:19.599Z,99.7
2022-10-21T03:34:33.740Z,99.6
2022-10-21T03:35:47.868Z,99.6
2022-10-21T03:36:58.761Z,99.6
2022-10-21T03:38:09.645Z,99.6
2022-10-21T03:39:23.741Z,99.6
2022-10-21T03:40:37.858Z,99.6
2022-10-21T03:44:20.226Z,99.5
2022-10-21T03:45:34.393Z,99.5
2022-10-21T03:46:48.488Z,99.5
2022-10-21T03:49:16.803Z,99.5
2022-10-21T03:50:27.633Z,99.5
2022-10-21T03:51:38.526Z,99.4
2022-10-21T03:52:52.635Z,99.4
2022-10-21T03:54:06.728Z,99.4
2022-10-21T03:57:49.169Z,99.4
2022-10-21T03:59:03.293Z,99.4
2022-10-21T04:00:17.402Z,99.4
2022-10-21T04:02:45.685Z,99.4
2022-10-21T04:03:56.488Z,99.4
2022-10-21T04:05:07.347Z,99.4
2022-10-21T04:06:21.540Z,99.4
2022-10-21T04:07:35.629Z,99.4
2022-10-21T04:10:03.918Z,99.4
2022-10-21T04:11:18.011Z,99.4
2022-10-21T04:13:46.300Z,99.5
2022-10-21T04:16:14.542Z,99.5
2022-10-21T04:17:25.451Z,99.5
2022-10-21T04:18:36.282Z,99.5
2022-10-21T04:19:50.391Z,99.6
2022-10-21T04:21:04.550Z,99.6
2022-10-21T04:22:18.676Z,99.6
2022-10-21T04:23:32.828Z,99.6
2022-10-21T04:24:46.893Z,99.6
2022-10-21T04:26:01.019Z,99.6
2022-10-21T04:27:15.208Z,99.6
2022-10-21T04:28:29.298Z,99.6
2022-10-21T04:29:43.445Z,99.6
2022-10-21T04:32:05.136Z,99.6
2022-10-21T04:34:33.447Z,99.6
2022-10-21T04:37:01.681Z,99.6
2022-10-21T04:38:15.843Z,99.6
2022-10-21T04:39:30.090Z,99.6
2022-10-21T04:40:44.075Z,99.6
2022-10-21T04:41:58.181Z,99.6
2022-10-21T04:43:12.337Z,99.6
2022-10-21T04:44:23.209Z,99.6
2022-10-21T04:45:33.610Z,99.6
2022-10-21T04:46:47.770Z,99.6
2022-10-21T04:48:01.873Z,99.6
2022-10-21T04:50:30.168Z,99.6
2022-10-21T04:52:58.373Z,99.5
2022-10-21T04:54:12.513Z,99.5
2022-10-21T04:55:26.654Z,99.5
2022-10-21T04:57:51.647Z,99.5
2022-10-21T04:59:02.527Z,99.5
2022-10-21T05:01:30.790Z,99.5
2022-10-21T05:02:44.884Z,99.5
2022-10-21T05:03:59.020Z,99.4
2022-10-21T05:06:27.267Z,99.4
2022-10-21T05:07:41.443Z,99.3
2022-10-21T05:10:09.636Z,99.3
2022-10-21T05:11:20.536Z,99.3
2022-10-21T05:12:31.412Z,99.2
2022-10-21T05:14:59.660Z,99.2
2022-10-21T05:16:13.776Z,99.2
2022-10-21T05:17:27.936Z,99.2
2022-10-21T05:18:42.074Z,99.2
2022-10-21T05:21:10.320Z,99.2
2022-10-21T05:22:24.448Z,99.1
2022-10-21T05:24:49.432Z,99.1
2022-10-21T05:27:14.427Z,99
2022-10-21T05:30:56.833Z,98.9
2022-10-21T05:32:10.908Z,98.9
2022-10-21T05:33:25.054Z,98.8
2022-10-21T05:34:39.153Z,98.7
2022-10-21T05:35:53.311Z,98.7
2022-10-21T05:37:07.473Z,98.7
2022-10-21T05:39:29.171Z,98.7
2022-10-21T05:40:43.287Z,98.7
2022-10-21T05:43:11.591Z,98.7
2022-10-21T05:46:53.907Z,98.7
2022-10-21T05:48:08.151Z,98.6
2022-10-21T05:49:30.411Z,98.6
2022-10-21T05:50:41.263Z,98.6
2022-10-21T05:51:52.109Z,98.6
2022-10-21T05:56:48.634Z,98.6
2022-10-21T05:58:02.764Z,98.5
2022-10-21T05:59:16.889Z,98.5
2022-10-21T06:01:45.164Z,98.5
2022-10-21T06:02:59.272Z,98.5
2022-10-21T06:04:09.684Z,98.5
2022-10-21T06:05:20.546Z,98.4
2022-10-21T06:06:34.680Z,98.4
2022-10-21T06:07:48.803Z,98.3
2022-10-21T06:10:17.100Z,98.3
2022-10-21T06:11:31.194Z,98.3
2022-10-21T06:12:45.314Z,98.2
2022-10-21T06:13:59.447Z,98.1
2022-10-21T06:15:13.612Z,98.1
2022-10-21T06:16:27.703Z,98.1
2022-10-21T06:17:38.624Z,98
2022-10-21T06:18:49.479Z,98
2022-10-21T06:20:03.577Z,98
2022-10-21T06:23:45.957Z,97.8
2022-10-21T06:27:28.378Z,97.8
2022-10-21T06:32:18.316Z,97.7
2022-10-21T06:33:32.496Z,97.7
2022-10-21T06:36:00.762Z,97.7
2022-10-21T06:37:14.883Z,97.7
2022-10-21T06:39:43.143Z,97.7
2022-10-21T06:42:11.364Z,97.7
2022-10-21T06:43:25.525Z,97.7
2022-10-21T06:45:47.224Z,97.7
2022-10-21T06:47:01.384Z,97.6
2022-10-21T06:48:15.498Z,97.6
2022-10-21T06:49:29.655Z,97.6
2022-10-21T06:50:43.767Z,97.6
2022-10-21T06:51:57.886Z,97.6
2022-10-21T06:55:40.278Z,97.6
2022-10-21T06:56:54.393Z,97.6
2022-10-21T06:58:05.244Z,97.6
2022-10-21T06:59:16.120Z,97.6
2022-10-21T07:00:30.232Z,97.6
2022-10-21T07:01:44.353Z,97.6
2022-10-21T07:02:58.528Z,97.7
2022-10-21T07:05:26.784Z,97.6
2022-10-21T07:06:40.918Z,97.6
2022-10-21T07:11:34.167Z,97.6
2022-10-21T07:12:45.026Z,97.5
2022-10-21T07:16:27.422Z,97.6
2022-10-21T07:18:55.647Z,97.6
2022-10-21T07:20:09.810Z,97.6
2022-10-21T07:21:23.913Z,97.6
2022-10-21T07:23:52.179Z,97.6
2022-10-21T07:25:03.032Z,97.6
2022-10-21T07:26:13.908Z,97.5
2022-10-21T07:27:27.994Z,97.5
2022-10-21T07:28:42.138Z,97.5
2022-10-21T07:29:56.308Z,97.6
2022-10-21T07:31:10.408Z,97.6
2022-10-21T07:32:24.554Z,97.6
2022-10-21T07:36:06.943Z,97.5
2022-10-21T07:37:21.038Z,97.5
2022-10-21T07:38:31.908Z,97.5
2022-10-21T07:39:42.782Z,97.6
2022-10-21T07:40:56.937Z,97.5
2022-10-21T07:44:39.312Z,97.6
2022-10-21T07:45:53.393Z,97.6
2022-10-21T07:47:07.584Z,97.6
2022-10-21T07:53:11.646Z,97.2
2022-10-21T07:56:54.072Z,97.2
2022-10-21T07:58:08.194Z,97.2
2022-10-21T08:03:04.716Z,97
2022-10-21T08:05:29.662Z,96.9
2022-10-21T08:06:40.102Z,96.9
2022-10-21T08:07:54.244Z,96.8
2022-10-21T08:12:50.769Z,96.7
2022-10-21T08:14:04.878Z,96.6
2022-10-21T08:15:19.046Z,96.6
2022-10-21T08:16:33.141Z,96.6
2022-10-21T08:17:47.270Z,96.6
2022-10-21T08:18:58.158Z,96.6
2022-10-21T08:20:08.996Z,96.6
2022-10-21T08:21:23.096Z,96.7
2022-10-21T08:22:37.254Z,96.7
2022-10-21T08:25:05.520Z,96.7
2022-10-21T08:27:33.762Z,96.6
2022-10-21T08:28:47.903Z,96.6
2022-10-21T08:31:16.168Z,96.6
2022-10-21T08:32:26.999Z,96.7
2022-10-21T08:33:37.911Z,96.7
2022-10-21T08:34:52.010Z,96.8
2022-10-21T08:36:06.129Z,96.8
2022-10-21T08:37:20.315Z,96.9
2022-10-21T08:38:34.392Z,97
2022-10-21T08:39:48.512Z,97.2
2022-10-21T08:41:02.689Z,97.4
2022-10-21T08:42:16.808Z,97.8
2022-10-21T08:43:30.934Z,98
2022-10-21T08:44:45.022Z,98.4
2022-10-21T08:45:55.915Z,98.5
2022-10-21T08:47:06.800Z,98.6
2022-10-21T08:48:20.894Z,98.7
2022-10-21T08:49:35.060Z,98.9
2022-10-21T08:50:49.146Z,99
2022-10-21T08:53:17.457Z,99.1
2022-10-21T08:54:31.581Z,99.2
2022-10-21T08:58:13.976Z,99.6
2022-10-21T09:05:32.198Z,99.8
2022-10-21T09:06:46.284Z,99.9
2022-10-21T09:09:14.598Z,100
2022-10-21T09:10:28.708Z,100
2022-10-21T09:12:53.676Z,100
2022-10-21T09:14:04.537Z,100
2022-10-21T09:15:18.678Z,100
2022-10-21T09:16:32.840Z,100
2022-10-21T09:17:46.943Z,100
2022-10-21T09:21:29.335Z,100
2022-10-21T09:23:57.616Z,100
2022-10-21T09:25:11.752Z,100
2022-10-21T09:26:22.177Z,100
2022-10-21T09:27:33.036Z,100
2022-10-21T09:28:47.113Z,100
2022-10-21T09:30:01.261Z,100
2022-10-21T09:31:15.423Z,100
2022-10-21T09:32:29.556Z,100
2022-10-21T09:33:43.679Z,100
2022-10-21T09:34:57.860Z,100
2022-10-21T09:36:11.942Z,100
2022-10-21T09:38:40.219Z,100
2022-10-21T09:39:51.074Z,100
2022-10-21T09:42:16.058Z,100
2022-10-21T09:43:30.143Z,100
2022-10-21T09:44:44.311Z,100
2022-10-21T09:47:12.572Z,100
2022-10-21T09:49:40.806Z,100
2022-10-21T09:50:54.946Z,100
2022-10-21T09:52:09.056Z,100
2022-10-21T09:53:19.947Z,100
2022-10-21T09:54:30.446Z,100
2022-10-21T09:58:20.948Z,100
2022-10-21T09:59:35.079Z,100
2022-10-21T10:00:49.162Z,100
2022-10-21T10:02:03.343Z,100
2022-10-21T10:03:17.420Z,100
2022-10-21T10:06:53.303Z,100
2022-10-21T10:08:07.416Z,100
2022-10-21T10:10:35.680Z,100
2022-10-21T10:11:49.854Z,100
2022-10-21T10:14:18.105Z,100
2022-10-21T10:15:32.186Z,100
2022-10-21T10:16:46.354Z,100
2022-10-21T10:18:00.441Z,100
2022-10-21T10:19:11.329Z,100
2022-10-21T10:21:36.359Z,100
2022-10-21T10:22:50.481Z,100
2022-10-21T10:24:04.588Z,100
2022-10-21T10:25:18.697Z,100
2022-10-21T10:26:32.824Z,100
2022-10-21T10:29:01.140Z,100
2022-10-21T10:30:15.244Z,100
2022-10-21T10:31:29.375Z,100
2022-10-21T10:32:40.258Z,100
2022-10-21T10:35:05.206Z,100
2022-10-21T10:36:19.321Z,100
2022-10-21T10:38:47.583Z,100
2022-10-21T10:41:15.835Z,100
2022-10-21T10:42:29.987Z,100
2022-10-21T10:44:58.273Z,100
2022-10-21T10:46:09.144Z,100
2022-10-21T10:47:19.964Z,100
2022-10-21T10:51:02.400Z,100
2022-10-21T10:52:16.514Z,100
2022-10-21T10:53:30.651Z,100
2022-10-21T10:54:44.762Z,100
2022-10-21T10:55:58.893Z,100
2022-10-21T10:57:12.988Z,100
2022-10-21T10:59:37.993Z,100
2022-10-21T11:03:16.694Z,100
2022-10-21T11:04:30.850Z,100
2022-10-21T11:06:59.086Z,100
2022-10-21T11:09:27.351Z,100
2022-10-21T11:10:41.458Z,100
2022-10-21T11:11:55.587Z,100
2022-10-21T11:14:17.343Z,100
2022-10-21T11:15:31.462Z,100
2022-10-21T11:16:45.595Z,100
2022-10-21T11:19:13.848Z,100
2022-10-21T11:20:27.948Z,100
2022-10-21T11:21:42.105Z,100
2022-10-21T11:22:56.223Z,100
2022-10-21T11:24:10.383Z,100
2022-10-21T11:25:24.492Z,100
2022-10-21T11:26:35.335Z,100
2022-10-21T11:29:00.337Z,100
2022-10-21T11:30:14.513Z,100
2022-10-21T11:31:28.642Z,100
2022-10-21T11:32:42.742Z,100
2022-10-21T11:35:11.011Z,100
2022-10-21T11:36:25.105Z,100
2022-10-21T11:37:39.256Z,100
2022-10-21T11:38:53.362Z,100
2022-10-21T11:40:04.219Z,100
2022-10-21T11:41:15.121Z,100
2022-10-21T11:43:43.378Z,100
2022-10-21T11:44:57.517Z,100
2022-10-21T11:46:11.650Z,100
2022-10-21T11:47:25.774Z,100
2022-10-21T11:48:39.867Z,100
2022-10-21T11:51:08.121Z,100
2022-10-21T11:52:22.252Z,100
2022-10-21T11:53:33.164Z,100
2022-10-21T11:55:58.137Z,99.2
2022-10-21T11:57:12.261Z,97.1
2022-10-21T11:59:40.484Z,94.8
2022-10-21T12:02:08.766Z,92.7
2022-10-21T12:03:22.920Z,92.3
2022-10-21T12:08:12.891Z,91.1
2022-10-21T12:11:55.285Z,88.2
2022-10-21T12:13:09.431Z,87.5
2022-10-21T12:14:23.543Z,87
2022-10-21T12:15:37.662Z,85
2022-10-21T12:16:51.781Z,84.6
2022-10-21T12:19:20.021Z,84.3
2022-10-21T12:21:41.768Z,83.4
2022-10-21T12:24:10.015Z,82.6
2022-10-21T12:27:52.446Z,81.5
2022-10-21T12:31:34.828Z,81.8
2022-10-21T12:32:48.897Z,81.5
2022-10-21T12:33:59.809Z,81.3
2022-10-21T12:35:10.697Z,80.1
2022-10-21T12:36:24.796Z,78.7
2022-10-21T12:38:53.030Z,79.2
2022-10-21T12:40:07.196Z,78.6
2022-10-21T12:41:21.340Z,78.8
2022-10-21T12:43:49.636Z,78.3
2022-10-21T12:47:28.673Z,76.5
2022-10-21T12:48:39.554Z,76.1
2022-10-21T12:52:21.944Z,77.6
2022-10-21T12:53:36.070Z,77.8
2022-10-21T12:56:04.298Z,79.5
2022-10-21T12:57:18.439Z,79.1
2022-10-21T13:00:57.612Z,81.6
2022-10-21T13:02:08.445Z,81.2
2022-10-21T13:07:04.971Z,83.4
2022-10-21T13:08:19.112Z,81.6
2022-10-21T13:09:33.226Z,82
2022-10-21T13:10:47.354Z,81.7
2022-10-21T13:12:01.486Z,81.6
2022-10-21T13:13:15.567Z,82.6
2022-10-21T13:15:37.309Z,83.3
2022-10-21T13:16:51.433Z,82.9
2022-10-21T13:18:05.604Z,82.9
2022-10-21T13:19:19.695Z,83.3
2022-10-21T13:20:33.844Z,83.6
2022-10-21T13:23:02.119Z,83.3
2022-10-21T13:24:16.258Z,83.8
2022-10-21T13:25:30.373Z,83.9
2022-10-21T13:29:06.249Z,85.2
2022-10-21T13:31:34.439Z,84.9
2022-10-21T13:32:48.630Z,84.9
2022-10-21T13:34:02.755Z,84.4
2022-10-21T13:35:16.887Z,84.5
2022-10-21T13:37:45.125Z,85
2022-10-21T13:38:59.227Z,85.6
2022-10-21T13:40:13.355Z,84.9
2022-10-21T13:41:24.245Z,85.3
2022-10-21T13:42:35.128Z,86
2022-10-21T13:45:03.399Z,82.6
2022-10-21T13:47:31.616Z,83.1
2022-10-21T13:48:45.727Z,83.2
2022-10-21T13:49:59.919Z,82.6
2022-10-21T13:52:28.110Z,81.8
2022-10-21T13:54:53.099Z,81.4
2022-10-21T13:57:18.106Z,82.7
2022-10-21T13:58:32.286Z,83.2
2022-10-21T13:59:46.351Z,83.4
2022-10-21T14:01:00.613Z,82.7
2022-10-21T14:02:22.848Z,82.8
2022-10-21T14:03:36.985Z,82.2
2022-10-21T14:04:51.106Z,80.8
2022-10-21T14:07:16.099Z,79.5
2022-10-21T14:08:26.954Z,80.2
2022-10-21T14:09:41.104Z,80
2022-10-21T14:13:23.462Z,80.2
2022-10-21T14:14:37.590Z,80.6
2022-10-21T14:18:19.982Z,80.5
2022-10-21T14:20:44.972Z,80.1
2022-10-21T14:21:55.395Z,80.5
2022-10-21T14:23:09.497Z,79.2
2022-10-21T14:24:23.664Z,79.8
2022-10-21T14:25:37.780Z,80.7
2022-10-21T14:26:51.913Z,81.5
2022-10-21T14:29:20.151Z,82
2022-10-21T14:30:34.335Z,82.6
2022-10-21T14:33:02.541Z,82.1
2022-10-21T14:37:52.522Z,81.5
2022-10-21T14:39:06.665Z,81.1
2022-10-21T14:44:03.152Z,79.7
2022-10-21T14:45:17.286Z,79.6
2022-10-21T14:46:31.414Z,80
2022-10-21T14:47:42.305Z,79.9
2022-10-21T14:48:53.165Z,80.1
2022-10-21T14:52:35.593Z,79.1
2022-10-21T14:53:49.723Z,79
2022-10-21T14:55:03.781Z,79.3
2022-10-21T14:56:17.949Z,79.3
2022-10-21T14:57:32.073Z,79.5
2022-10-21T14:58:46.182Z,79.7
2022-10-21T15:01:11.222Z,80
2022-10-21T15:02:21.590Z,80.2
2022-10-21T15:03:35.746Z,80.4
2022-10-21T15:04:49.914Z,80.7
2022-10-21T15:08:32.279Z,80.7
2022-10-21T15:09:46.397Z,80.7
2022-10-21T15:11:00.515Z,80.7
2022-10-21T15:12:14.632Z,80.3
2022-10-21T15:13:28.749Z,80.6
2022-10-21T15:14:39.647Z,80.9
2022-10-21T15:15:50.491Z,80.4
2022-10-21T15:17:04.668Z,80.4
2022-10-21T15:19:32.875Z,80.3
2022-10-21T15:20:47.031Z,80.5
2022-10-21T15:22:01.262Z,80.6
2022-10-21T15:23:15.295Z,80.8
2022-10-21T15:24:29.434Z,80.9
2022-10-21T15:28:08.571Z,80.8
2022-10-21T15:29:19.421Z,80.8
2022-10-21T15:30:33.491Z,80.8
2022-10-21T15:35:30.066Z,81.4
2022-10-21T15:36:44.189Z,81.7
2022-10-21T15:39:12.436Z,81.6
2022-10-21T15:40:26.564Z,81.8
2022-10-21T15:45:16.574Z,82.5
2022-10-21T15:46:30.713Z,82.6
2022-10-21T15:47:44.787Z,82.5
2022-10-21T15:48:58.909Z,82.5
2022-10-21T15:51:27.214Z,82.3
2022-10-21T15:52:41.304Z,82.4
2022-10-21T15:55:06.523Z,82.9
2022-10-21T15:58:45.441Z,83
2022-10-21T15:59:59.550Z,83.3
2022-10-21T16:01:13.663Z,83.6
2022-10-21T16:03:41.932Z,83.3
2022-10-21T16:04:56.099Z,83.4
2022-10-21T16:06:10.191Z,84
2022-10-21T16:07:24.311Z,83.9
2022-10-21T16:08:34.749Z,84.3
2022-10-21T16:09:45.635Z,84.8
2022-10-21T16:10:59.744Z,84.4
2022-10-21T16:12:13.885Z,85
2022-10-21T16:14:42.132Z,85.6
2022-10-21T16:15:56.240Z,85.8
2022-10-21T16:17:10.380Z,86.2
2022-10-21T16:19:38.665Z,86.3
2022-10-21T16:22:03.639Z,86.2
2022-10-21T16:23:14.542Z,86.8
2022-10-21T16:24:28.662Z,87.2
2022-10-21T16:25:42.767Z,87.3
2022-10-21T16:28:11.018Z,87.6
2022-10-21T16:29:25.162Z,87.8
2022-10-21T16:30:39.263Z,88.1
2022-10-21T16:31:53.404Z,87.7
2022-10-21T16:34:21.667Z,87.6
2022-10-21T16:36:43.400Z,88.3
2022-10-21T16:37:57.534Z,88.6
2022-10-21T16:39:11.658Z,88.7
2022-10-21T16:40:25.784Z,88.8
2022-10-21T16:42:54.061Z,88.8
2022-10-21T16:44:08.198Z,88.9
2022-10-21T16:46:36.449Z,89.1
2022-10-21T16:47:50.576Z,89.2
2022-10-21T16:51:26.408Z,89.6
2022-10-21T16:52:40.526Z,89.7
2022-10-21T16:53:54.766Z,89.7
2022-10-21T16:55:08.790Z,89.8
2022-10-21T16:57:37.100Z,89.7
2022-10-21T16:58:51.165Z,89.8
2022-10-21T17:03:41.198Z,89.7
2022-10-21T17:04:55.307Z,89.8
2022-10-21T17:06:09.450Z,89.5
2022-10-21T17:07:23.560Z,89.5
2022-10-21T17:08:37.676Z,89.4
2022-10-21T17:09:51.838Z,89.5
2022-10-21T17:11:05.993Z,89.2
2022-10-21T17:12:20.089Z,89.1
2022-10-21T17:13:34.228Z,89.2
2022-10-21T17:14:48.354Z,89.3
2022-10-21T17:15:59.172Z,89.4
2022-10-21T17:17:10.039Z,89.4
2022-10-21T17:18:24.180Z,89.4
2022-10-21T17:19:38.308Z,89.5
2022-10-21T17:20:52.459Z,89.6
2022-10-21T17:22:06.584Z,89.8
2022-10-21T17:23:20.708Z,89.8
2022-10-21T17:25:48.963Z,90.1
2022-10-21T17:27:03.091Z,90.1
2022-10-21T17:28:17.263Z,90.3
2022-10-21T17:29:27.856Z,90.3
2022-10-21T17:30:38.727Z,90.3
2022-10-21T17:31:52.842Z,90.4
2022-10-21T17:33:06.961Z,90.5
2022-10-21T17:34:21.111Z,90.6
2022-10-21T17:35:35.168Z,90.7
2022-10-21T17:38:03.449Z,90.8
2022-10-21T17:39:17.579Z,90.9
2022-10-21T17:40:31.712Z,91
2022-10-21T17:44:10.859Z,91.3
2022-10-21T17:46:35.801Z,91.4
2022-10-21T17:49:12.299Z,91.5
2022-10-21T17:50:26.487Z,91.6
2022-10-21T17:53:02.854Z,91.7
2022-10-21T17:54:16.997Z,91.7
2022-10-21T17:55:31.089Z,91.7
2022-10-21T17:57:52.818Z,91.7
2022-10-21T17:59:06.932Z,91.7
2022-10-21T18:01:35.253Z,91.7
2022-10-21T18:07:45.852Z,91.7
2022-10-21T18:09:00.001Z,91.8
2022-10-21T18:10:10.492Z,91.7
2022-10-21T18:11:21.371Z,91.7
2022-10-21T18:13:49.647Z,91.7
2022-10-21T18:16:17.882Z,91.5
2022-10-21T18:17:32.025Z,91.5
2022-10-21T18:21:14.438Z,91.7
2022-10-21T18:24:53.557Z,91.8
2022-10-21T18:26:03.959Z,91.8
2022-10-21T18:27:18.103Z,91.8
2022-10-21T18:28:32.216Z,91.8
2022-10-21T18:29:46.306Z,91.7
2022-10-21T18:31:00.446Z,91.7
2022-10-21T18:32:14.593Z,91.7
2022-10-21T18:33:28.712Z,91.7
2022-10-21T18:34:42.871Z,91.7
2022-10-21T18:35:57.000Z,91.8
2022-10-21T18:37:11.144Z,91.8
2022-10-21T18:38:21.988Z,91.8
2022-10-21T18:39:32.846Z,91.7
2022-10-21T18:42:01.126Z,91.8
2022-10-21T18:43:15.214Z,91.8
2022-10-21T18:44:29.324Z,91.8
2022-10-21T18:45:43.453Z,91.8
2022-10-21T18:46:57.610Z,91.8
2022-10-21T18:48:11.708Z,91.8
2022-10-21T18:49:25.863Z,91.7
2022-10-21T18:50:40.110Z,91.7
2022-10-21T18:51:50.522Z,91.8
2022-10-21T18:53:01.357Z,91.8
2022-10-21T18:54:15.474Z,91.8
2022-10-21T18:55:29.610Z,91.8
2022-10-21T18:56:43.730Z,91.9
2022-10-21T18:57:57.911Z,92
2022-10-21T18:59:12.032Z,92
2022-10-21T19:00:26.120Z,92.1
2022-10-21T19:01:40.286Z,92.1
2022-10-21T19:02:54.419Z,92.1
2022-10-21T19:04:08.590Z,92.1
2022-10-21T19:06:30.364Z,92.1
2022-10-21T19:10:12.688Z,92.1
2022-10-21T19:12:40.979Z,92.1
2022-10-21T19:13:55.095Z,92.1
2022-10-21T19:15:09.229Z,92.1
2022-10-21T19:16:23.344Z,92.1
2022-10-21T19:17:37.480Z,92.1
2022-10-21T19:19:59.219Z,92.2
2022-10-21T19:21:13.344Z,92.1
2022-10-21T19:22:27.519Z,92.2
2022-10-21T19:25:03.926Z,92.2
2022-10-21T19:26:18.075Z,92.2
2022-10-21T19:27:32.206Z,92.1
2022-10-21T19:28:46.363Z,92.2
2022-10-21T19:30:08.615Z,92.2
2022-10-21T19:31:19.479Z,92.3
2022-10-21T19:32:29.915Z,92.3
2022-10-21T19:33:44.034Z,92.3
2022-10-21T19:34:58.156Z,92.4
2022-10-21T19:36:12.323Z,92.5
2022-10-21T19:37:26.462Z,92.5
2022-10-21T19:39:54.727Z,92.5
2022-10-21T19:41:08.836Z,92.6
2022-10-21T19:42:22.993Z,92.7
2022-10-21T19:43:37.092Z,92.7
2022-10-21T19:44:47.931Z,92.8
2022-10-21T19:45:58.782Z,92.8
2022-10-21T19:47:12.958Z,92.9
2022-10-21T19:48:27.038Z,92.9
2022-10-21T19:49:41.217Z,92.9
2022-10-21T19:52:09.420Z,93
2022-10-21T19:53:23.555Z,93
2022-10-21T19:54:37.708Z,93.1
2022-10-21T19:57:05.952Z,93
2022-10-21T19:58:16.830Z,93.1
2022-10-21T19:59:27.468Z,93.1
2022-10-21T20:00:49.649Z,93.2
2022-10-21T20:03:17.897Z,93.2
2022-10-21T20:05:46.211Z,93.3
2022-10-21T20:07:00.327Z,93.2
2022-10-21T20:08:14.423Z,93.2
2022-10-21T20:11:50.288Z,93.2
2022-10-21T20:13:04.444Z,93.1
2022-10-21T20:15:32.712Z,93.2
2022-10-21T20:18:00.943Z,93.2
2022-10-21T20:20:29.231Z,93.2
2022-10-21T20:21:43.307Z,93.2
2022-10-21T20:22:57.487Z,93.2
2022-10-21T20:24:08.292Z,93.3
2022-10-21T20:25:19.202Z,93.3
2022-10-21T20:26:33.305Z,93.3
2022-10-21T20:27:47.473Z,93.3
2022-10-21T20:29:01.604Z,93.3
2022-10-21T20:30:15.724Z,93.3
2022-10-21T20:31:29.845Z,93.3
2022-10-21T20:32:43.935Z,93.3
2022-10-21T20:35:12.179Z,93.4
2022-10-21T20:36:26.377Z,93.4
2022-10-21T20:37:37.203Z,93.4
2022-10-21T20:40:02.217Z,93.4
2022-10-21T20:41:16.298Z,93.5
2022-10-21T20:42:30.498Z,93.4
2022-10-21T20:43:44.610Z,93.5
2022-10-21T20:49:55.261Z,93.5
2022-10-21T20:51:06.135Z,93.5
2022-10-21T20:52:16.974Z,93.5
2022-10-21T20:53:31.066Z,93.5
2022-10-21T20:54:45.239Z,93.5
2022-10-21T20:57:13.509Z,93.4
2022-10-21T20:58:27.612Z,93.4
2022-10-21T20:59:41.733Z,93.4
2022-10-21T21:00:55.842Z,93.4
2022-10-21T21:03:24.149Z,93.5
2022-10-21T21:05:45.874Z,93.5
2022-10-21T21:06:59.994Z,93.5
2022-10-21T21:08:14.126Z,93.4
2022-10-21T21:09:28.200Z,93.6
2022-10-21T21:10:42.402Z,93.7
2022-10-21T21:11:56.506Z,93.8
2022-10-21T21:14:24.722Z,93.9
2022-10-21T21:15:38.920Z,93.9
2022-10-21T21:19:14.710Z,94
2022-10-21T21:20:28.892Z,94
2022-10-21T21:21:42.990Z,94.1
2022-10-21T21:22:57.153Z,94.1
2022-10-21T21:24:11.229Z,94.2
2022-10-21T21:25:25.392Z,94.2
2022-10-21T21:26:39.530Z,94.3
2022-10-21T21:27:53.636Z,94.3
2022-10-21T21:29:07.790Z,94.3
2022-10-21T21:31:32.775Z,94.3
2022-10-21T21:33:57.761Z,94.3
2022-10-21T21:37:40.149Z,94.3
2022-10-21T21:38:54.311Z,94.2
2022-10-21T21:40:08.433Z,94.2
2022-10-21T21:41:22.529Z,94.2
2022-10-21T21:42:36.663Z,94.3
2022-10-21T21:43:50.798Z,94.2
2022-10-21T21:45:01.660Z,94.3
2022-10-21T21:47:26.243Z,94.3
2022-10-21T21:48:40.370Z,94.3
2022-10-21T21:51:08.611Z,94.4
2022-10-21T21:52:22.743Z,94.5
2022-10-21T21:53:36.898Z,94.4
2022-10-21T21:54:50.968Z,94.5
2022-10-21T21:56:05.120Z,94.5
2022-10-21T21:57:19.285Z,94.6
2022-10-21T21:58:30.135Z,94.6
2022-10-21T21:59:40.945Z,94.6
2022-10-21T22:00:55.117Z,94.6
2022-10-21T22:02:09.209Z,94.6
2022-10-21T22:03:23.369Z,94.6
2022-10-21T22:04:37.464Z,94.8
2022-10-21T22:05:51.616Z,94.8
2022-10-21T22:07:05.719Z,94.8
2022-10-21T22:08:19.851Z,94.8
2022-10-21T22:09:34.016Z,94.8
2022-10-21T22:11:59.027Z,94.8
2022-10-21T22:13:09.850Z,94.8
2022-10-21T22:15:38.115Z,94.8
2022-10-21T22:16:52.241Z,94.8
2022-10-21T22:18:06.496Z,94.8
2022-10-21T22:19:28.677Z,94.8
2022-10-21T22:20:42.875Z,94.8
2022-10-21T22:21:56.935Z,94.8
2022-10-21T22:23:11.079Z,95
2022-10-21T22:25:32.811Z,95
2022-10-21T22:26:46.946Z,95
2022-10-21T22:28:01.114Z,95
2022-10-21T22:29:15.197Z,95.8
2022-10-21T22:30:29.359Z,96.1
2022-10-21T22:31:43.471Z,96.3